M I D A S
Marine Information and Data Acquisition System
Tripno 1999 of the Zeeleeuw from 2010-12-06 07:47:39 to 2010-12-06 18:22:24
Back to CruiseResearch ActivitiesStationsMapUnderway DataData graphs

EquipmentUnitsComment
TimeDGPSUTC
LatitudeDGPSDM.mWGS84
LongitudeDGPSDM.mWGS84
HeadingGyrodeg 
SOGDGPSknotsSpeed over ground
COGDGPSdegCourse over ground
DepthEcho soundermeters200 kHz
Missing or incorrect values are displayed as -999
Navigation data collected by the RV Zeeleeuw from 2010-12-06 07:35:11 to 2010-12-06 18:27:10
                                                                                    Next 1000 lines
Time Latitude Longitude Heading SOG COG Depth
2010-12-06 07:35:21 51°13.662 2°55.957 123.8 -999 205 6.9
2010-12-06 07:35:26 51°13.662 2°55.958 123.8 0.1 155 6.9
2010-12-06 07:35:31 51°13.663 2°55.958 123.8 0.2 78 6.9
2010-12-06 07:35:36 51°13.663 2°55.958 123.8 -999 357 6.9
2010-12-06 07:35:41 51°13.663 2°55.957 123.8 0.1 251 6.9
2010-12-06 07:35:45 51°13.663 2°55.957 123.8 0.3 207 6.9
2010-12-06 07:35:51 51°13.664 2°55.957 123.8 0.2 229 6.9
2010-12-06 07:35:56 51°13.664 2°55.957 123.8 0.1 82 6.9
2010-12-06 07:36:01 51°13.664 2°55.957 123.8 -999 154 6.9
2010-12-06 07:36:05 51°13.664 2°55.957 123.8 0.1 52 6.9
2010-12-06 07:36:11 51°13.664 2°55.957 123.8 0.1 272 6.9
2010-12-06 07:36:16 51°13.664 2°55.956 123.8 0.2 287 6.9
2010-12-06 07:36:21 51°13.664 2°55.956 123.8 0.1 284 6.9
2010-12-06 07:36:25 51°13.664 2°55.957 123.8 -999 119 6.9
2010-12-06 07:36:31 51°13.663 2°55.958 123.8 -999 116 6.9
2010-12-06 07:36:36 51°13.663 2°55.957 123.8 -999 342 6.9
2010-12-06 07:36:41 51°13.663 2°55.958 123.8 -999 153 6.9
2010-12-06 07:36:46 51°13.663 2°55.958 123.7 -999 157 6.9
2010-12-06 07:36:51 51°13.663 2°55.958 123.7 -999 341 6.9
2010-12-06 07:36:56 51°13.663 2°55.958 123.7 0.1 180 6.9
2010-12-06 07:37:01 51°13.663 2°55.957 123.7 0.1 202 6.9
2010-12-06 07:37:06 51°13.662 2°55.957 123.7 -999 265 6.9
2010-12-06 07:37:11 51°13.66 2°55.957 123.7 0.1 86 6.9
2010-12-06 07:37:16 51°13.659 2°55.957 123.7 0.1 63 7
2010-12-06 07:37:21 51°13.659 2°55.956 123.7 0.1 279 6.9
2010-12-06 07:37:26 51°13.659 2°55.956 123.7 0.1 260 7
2010-12-06 07:37:31 51°13.659 2°55.956 123.7 0.1 272 7
2010-12-06 07:37:36 51°13.659 2°55.957 123.8 0.1 31 7.2
2010-12-06 07:37:41 51°13.659 2°55.957 123.8 -999 23 7
2010-12-06 07:37:46 51°13.659 2°55.957 123.8 0.1 259 7
2010-12-06 07:37:51 51°13.659 2°55.957 123.8 -999 193 6.9
2010-12-06 07:37:56 51°13.66 2°55.957 123.8 0.1 245 6.9
2010-12-06 07:38:01 51°13.659 2°55.957 123.8 0.1 253 6.9
2010-12-06 07:38:06 51°13.659 2°55.957 124.1 0.1 330 6.9
2010-12-06 07:38:11 51°13.659 2°55.957 124.4 0.1 351 6.9
2010-12-06 07:38:16 51°13.659 2°55.957 124.6 0.1 323 6.9
2010-12-06 07:38:21 51°13.659 2°55.957 124.9 0.1 314 6.9
2010-12-06 07:38:26 51°13.66 2°55.958 125.1 -999 280 6.9
2010-12-06 07:38:31 51°13.66 2°55.958 125.3 -999 134 6.9
2010-12-06 07:38:36 51°13.66 2°55.958 125.5 -999 107 7
2010-12-06 07:38:41 51°13.66 2°55.958 125.7 -999 254 6.9
2010-12-06 07:38:46 51°13.66 2°55.958 125.8 -999 358 6.9
2010-12-06 07:38:51 51°13.66 2°55.958 125.9 -999 269 6.9
2010-12-06 07:38:56 51°13.66 2°55.958 126 -999 8 6.9
2010-12-06 07:39:01 51°13.66 2°55.959 126 -999 36 6.9
2010-12-06 07:39:06 51°13.66 2°55.959 126.1 -999 345 6.9
2010-12-06 07:39:11 51°13.66 2°55.959 126.1 -999 334 6.9
2010-12-06 07:39:16 51°13.66 2°55.959 126.1 -999 167 6.9
2010-12-06 07:39:21 51°13.661 2°55.959 126.1 -999 179 6.9
2010-12-06 07:39:26 51°13.661 2°55.959 126.1 -999 172 6.9
2010-12-06 07:39:31 51°13.661 2°55.959 126.1 0.1 80 6.9
2010-12-06 07:39:36 51°13.661 2°55.959 126.1 -999 227 6.9
2010-12-06 07:39:41 51°13.661 2°55.959 126.1 -999 214 6.9
2010-12-06 07:39:46 51°13.661 2°55.959 126.1 -999 119 6.9
2010-12-06 07:39:51 51°13.661 2°55.959 126.1 0.1 264 6.9
2010-12-06 07:39:56 51°13.661 2°55.958 126.1 0.2 293 7
2010-12-06 07:40:01 51°13.661 2°55.959 126.1 0.1 286 -999
2010-12-06 07:40:05 51°13.661 2°55.959 126.1 -999 320 6.9
2010-12-06 07:40:11 51°13.662 2°55.959 126.1 -999 296 6.9
2010-12-06 07:40:16 51°13.662 2°55.959 126.1 0.1 322 6.9
2010-12-06 07:40:21 51°13.662 2°55.959 126.1 -999 250 7
2010-12-06 07:40:25 51°13.662 2°55.959 126.1 0.1 270 6.9
2010-12-06 07:40:31 51°13.662 2°55.959 126.1 0.1 286 6.9
2010-12-06 07:40:36 51°13.662 2°55.959 126.1 -999 238 7
2010-12-06 07:40:41 51°13.662 2°55.959 126.1 0.1 180 6.9
2010-12-06 07:40:45 51°13.662 2°55.959 126.1 -999 53 6.9
2010-12-06 07:40:51 51°13.662 2°55.96 126.1 -999 132 6.9
2010-12-06 07:40:56 51°13.662 2°55.959 126.1 -999 229 6.9
2010-12-06 07:41:01 51°13.662 2°55.96 126.1 -999 201 6.9
2010-12-06 07:41:05 51°13.662 2°55.96 126.1 0.1 91 6.9
2010-12-06 07:41:11 51°13.662 2°55.96 126.1 -999 82 6.9
2010-12-06 07:41:16 51°13.662 2°55.96 126.1 0.1 135 6.9
2010-12-06 07:41:21 51°13.662 2°55.96 126.1 0.1 125 6.9
2010-12-06 07:41:26 51°13.662 2°55.96 126.1 0.1 249 6.9
2010-12-06 07:41:31 51°13.662 2°55.96 126.1 0.1 357 7.1
2010-12-06 07:41:37 51°13.662 2°55.96 126.4 -999 34 6.9
2010-12-06 07:41:41 51°13.662 2°55.96 126.6 -999 165 6.9
2010-12-06 07:41:45 51°13.662 2°55.96 126.7 -999 128 7
2010-12-06 07:41:51 51°13.662 2°55.96 126.7 -999 327 6.9
2010-12-06 07:41:56 51°13.662 2°55.96 126.7 0.1 -999 7
2010-12-06 07:42:01 51°13.662 2°55.96 126.7 0.1 3 7
2010-12-06 07:42:06 51°13.662 2°55.96 126.7 0.1 13 7
2010-12-06 07:42:11 51°13.662 2°55.96 126.6 0.1 25 6.9
2010-12-06 07:42:16 51°13.662 2°55.96 126.3 -999 88 6.9
2010-12-06 07:42:21 51°13.662 2°55.96 125.5 0.1 180 6.9
2010-12-06 07:42:26 51°13.662 2°55.961 124.4 -999 170 6.9
2010-12-06 07:42:31 51°13.662 2°55.961 123.6 0.1 178 7
2010-12-06 07:42:36 51°13.662 2°55.961 122.7 -999 173 6.9
2010-12-06 07:42:41 51°13.662 2°55.961 121.9 -999 31 6.9
2010-12-06 07:42:45 51°13.662 2°55.961 121.3 -999 14 6.9
2010-12-06 07:42:51 51°13.662 2°55.961 120.6 -999 209 -999
2010-12-06 07:42:56 51°13.662 2°55.961 120 0.1 191 7
2010-12-06 07:43:01 51°13.662 2°55.961 119.5 0.1 199 -999
2010-12-06 07:43:06 51°13.662 2°55.961 119 -999 195 6.9
2010-12-06 07:43:11 51°13.662 2°55.961 118.5 0.1 183 7
2010-12-06 07:43:16 51°13.661 2°55.96 118 0.2 187 7
2010-12-06 07:43:21 51°13.66 2°55.96 117.6 0.1 191 7
2010-12-06 07:43:25 51°13.659 2°55.96 117 0.1 191 7
2010-12-06 07:43:31 51°13.659 2°55.96 116.7 0.1 195 7
2010-12-06 07:43:36 51°13.659 2°55.96 116.1 0.1 188 7
2010-12-06 07:43:41 51°13.66 2°55.96 115.6 0.1 187 7
2010-12-06 07:43:46 51°13.66 2°55.96 115.3 -999 301 7
2010-12-06 07:43:51 51°13.66 2°55.96 114.9 0.1 182 7
2010-12-06 07:43:56 51°13.66 2°55.96 114.5 0.1 191 7
2010-12-06 07:44:01 51°13.66 2°55.96 114 0.1 201 7
2010-12-06 07:44:06 51°13.661 2°55.96 113.3 -999 338 7
2010-12-06 07:44:11 51°13.661 2°55.96 112.8 0.1 4 7
2010-12-06 07:44:16 51°13.66 2°55.96 112.2 0.1 199 7
2010-12-06 07:44:21 51°13.659 2°55.96 111.6 0.2 184 7
2010-12-06 07:44:26 51°13.66 2°55.959 111.1 0.2 332 7
2010-12-06 07:44:31 51°13.66 2°55.958 110.9 0.6 300 7.1
2010-12-06 07:44:36 51°13.66 2°55.956 111.1 1.2 302 7.1
2010-12-06 07:44:41 51°13.662 2°55.952 111.2 1.7 299 7.1
2010-12-06 07:44:45 51°13.663 2°55.949 111.1 2.2 300 7.2
2010-12-06 07:44:51 51°13.665 2°55.943 110.9 2.6 296 -999
2010-12-06 07:44:57 51°13.668 2°55.936 110.1 2.9 299 -999
2010-12-06 07:45:02 51°13.67 2°55.93 109.5 3.2 295 -999
2010-12-06 07:45:09 51°13.673 2°55.92 108.6 3.5 293 -999
2010-12-06 07:45:14 51°13.676 2°55.912 107.7 3.8 293 -999
2010-12-06 07:45:20 51°13.678 2°55.902 106.5 4 292 -999
2010-12-06 07:45:25 51°13.68 2°55.894 104.3 4.1 290 -999
2010-12-06 07:45:29 51°13.681 2°55.887 102.2 4.1 287 -999
2010-12-06 07:45:35 51°13.683 2°55.876 100.1 4.2 285 8
2010-12-06 07:45:40 51°13.684 2°55.867 98.1 4.2 283 -999
2010-12-06 07:45:45 51°13.686 2°55.857 96.3 4.3 282 -999
2010-12-06 07:45:49 51°13.687 2°55.85 94.3 4.4 282 -999
2010-12-06 07:45:54 51°13.688 2°55.84 92.7 4.4 279 -999
2010-12-06 07:46:00 51°13.689 2°55.829 90.6 4.3 278 -999
2010-12-06 07:46:05 51°13.689 2°55.82 88.7 4.1 276 9.4
2010-12-06 07:46:09 51°13.69 2°55.813 86.5 4 275 10.1
2010-12-06 07:46:14 51°13.69 2°55.805 84.5 3.8 270 -999
2010-12-06 07:46:19 51°13.69 2°55.797 82.1 3.6 270 11.4
2010-12-06 07:46:24 51°13.69 2°55.79 80 3.5 266 12.5
2010-12-06 07:46:29 51°13.69 2°55.782 77.9 3.3 267 12.3
2010-12-06 07:46:33 51°13.69 2°55.777 75.5 3.2 266 12.6
2010-12-06 07:46:38 51°13.689 2°55.77 73.4 3.1 266 13.3
2010-12-06 07:46:43 51°13.689 2°55.763 71.2 3 261 13
2010-12-06 07:46:49 51°13.688 2°55.756 69.2 2.8 260 12.6
2010-12-06 07:46:53 51°13.687 2°55.752 67.1 2.5 260 12.3
2010-12-06 07:46:58 51°13.687 2°55.747 64.7 1.9 263 12.2
2010-12-06 07:47:03 51°13.687 2°55.745 61.7 1.4 266 12
2010-12-06 07:47:08 51°13.687 2°55.742 57.8 1 270 11.9
2010-12-06 07:47:13 51°13.687 2°55.74 53.1 0.8 270 12
2010-12-06 07:47:17 51°13.687 2°55.739 48.4 0.7 272 11.9
2010-12-06 07:47:22 51°13.687 2°55.738 44.2 0.6 278 12
2010-12-06 07:47:27 51°13.687 2°55.737 40.7 0.6 271 11.9
2010-12-06 07:47:32 51°13.687 2°55.736 37.7 0.5 279 12
2010-12-06 07:47:37 51°13.688 2°55.735 35.1 0.4 284 11.9
2010-12-06 07:47:41 51°13.688 2°55.734 32.7 0.4 303 11.9
2010-12-06 07:47:46 51°13.689 2°55.734 30.2 0.5 330 11.9
2010-12-06 07:47:51 51°13.689 2°55.733 27.5 0.5 331 12
2010-12-06 07:47:56 51°13.69 2°55.733 24.5 0.5 343 12
2010-12-06 07:48:01 51°13.691 2°55.733 21.4 0.7 346 12
2010-12-06 07:48:06 51°13.693 2°55.732 18.2 0.9 352 12.2
2010-12-06 07:48:11 51°13.694 2°55.732 14.6 1.2 351 12.6
2010-12-06 07:48:16 51°13.696 2°55.731 10.2 1.3 348 12.6
2010-12-06 07:48:21 51°13.697 2°55.73 5.2 1.4 344 12.8
2010-12-06 07:48:26 51°13.7 2°55.729 -999 1.6 344 12.9
2010-12-06 07:48:31 51°13.703 2°55.728 354.6 2 344 13
2010-12-06 07:48:36 51°13.706 2°55.726 349.4 2.3 340 12.6
2010-12-06 07:48:41 51°13.709 2°55.724 345 2.5 339 12.1
2010-12-06 07:48:46 51°13.713 2°55.721 341.9 2.9 338 11.3
2010-12-06 07:48:51 51°13.717 2°55.718 339.3 3.3 336 11.1
2010-12-06 07:48:56 51°13.722 2°55.715 337.9 3.6 335 11.3
2010-12-06 07:49:01 51°13.728 2°55.711 336.8 4.1 335 11.4
2010-12-06 07:49:06 51°13.733 2°55.707 335.5 4.6 334 11.7
2010-12-06 07:49:11 51°13.74 2°55.701 334.3 5.1 332 11.1
2010-12-06 07:49:16 51°13.746 2°55.695 333.4 5.6 331 11.1
2010-12-06 07:49:21 51°13.754 2°55.689 332.9 6 331 10.9
2010-12-06 07:49:26 51°13.762 2°55.682 332.5 6.6 332 10.3
2010-12-06 07:49:31 51°13.771 2°55.674 332.6 7 332 10.4
2010-12-06 07:49:36 51°13.78 2°55.667 332.8 7.5 332 10.4
2010-12-06 07:49:41 51°13.789 2°55.658 332.7 7.7 331 10.3
2010-12-06 07:49:46 51°13.799 2°55.65 332.6 8 332 10.2
2010-12-06 07:49:51 51°13.81 2°55.642 333.3 8.4 334 10.3
2010-12-06 07:49:57 51°13.823 2°55.633 334.1 8.7 335 -999
2010-12-06 07:50:02 51°13.834 2°55.624 334.4 8.8 334 10.1
2010-12-06 07:50:07 51°13.846 2°55.616 334.4 9 334 9.9
2010-12-06 07:50:12 51°13.858 2°55.607 334.4 9.2 335 9.9
2010-12-06 07:50:17 51°13.87 2°55.598 334.6 9.4 336 9.4
2010-12-06 07:50:21 51°13.88 2°55.592 335 9.6 336 10
2010-12-06 07:50:26 51°13.891 2°55.583 335.1 9.7 335 10.5
2010-12-06 07:50:31 51°13.903 2°55.573 334.8 9.7 335 -999
2010-12-06 07:50:37 51°13.918 2°55.563 335.5 9.8 336 11
2010-12-06 07:50:41 51°13.929 2°55.556 335.7 10.1 336 11
2010-12-06 07:50:47 51°13.944 2°55.545 335.7 10.2 336 11
2010-12-06 07:50:52 51°13.957 2°55.535 335.4 10.3 336 10.9
2010-12-06 07:50:57 51°13.971 2°55.526 335.3 10.4 337 -999
2010-12-06 07:51:03 51°13.986 2°55.515 335.7 10.5 336 -999
2010-12-06 07:51:09 51°14.002 2°55.503 335.4 10.5 335 -999
2010-12-06 07:51:14 51°14.016 2°55.494 335.3 10.5 336 -999
2010-12-06 07:51:20 51°14.031 2°55.483 335.5 10.5 336 -999
2010-12-06 07:51:24 51°14.042 2°55.475 335.5 10.5 336 -999
2010-12-06 07:51:29 51°14.055 2°55.465 334.8 10.6 334 -999
2010-12-06 07:51:34 51°14.069 2°55.454 334 10.6 334 10
2010-12-06 07:51:39 51°14.082 2°55.444 333.8 10.7 334 10.3
2010-12-06 07:51:44 51°14.096 2°55.433 333.8 10.6 333 10.2
2010-12-06 07:51:49 51°14.109 2°55.422 333.8 10.6 333 -999
2010-12-06 07:51:55 51°14.126 2°55.41 333.7 10.7 334 -999
2010-12-06 07:52:00 51°14.139 2°55.399 332.9 10.8 333 -999
2010-12-06 07:52:05 51°14.152 2°55.389 332.6 10.8 334 -999
2010-12-06 07:52:09 51°14.163 2°55.38 333 10.8 334 -999
2010-12-06 07:52:15 51°14.178 2°55.367 333 10.7 332 -999
2010-12-06 07:52:20 51°14.191 2°55.356 332 10.7 331 -999
2010-12-06 07:52:25 51°14.205 2°55.345 331.7 10.9 332 10.3
2010-12-06 07:52:29 51°14.215 2°55.335 331.1 10.8 330 -999
2010-12-06 07:52:34 51°14.228 2°55.323 330.4 10.8 330 -999
2010-12-06 07:52:40 51°14.244 2°55.309 330.6 10.9 330 -999
2010-12-06 07:52:45 51°14.256 2°55.297 328.9 10.9 328 -999
2010-12-06 07:52:49 51°14.266 2°55.287 328.6 10.8 329 -999
2010-12-06 07:52:54 51°14.279 2°55.274 328.4 10.8 328 -999
2010-12-06 07:53:00 51°14.295 2°55.259 328.2 10.8 329 -999
2010-12-06 07:53:05 51°14.308 2°55.248 328.8 10.9 330 -999
2010-12-06 07:53:09 51°14.318 2°55.237 328.8 11 329 10.2
2010-12-06 07:53:14 51°14.331 2°55.225 328.8 11.1 330 10.1
2010-12-06 07:53:19 51°14.344 2°55.212 328.8 11 329 -999
2010-12-06 07:53:24 51°14.357 2°55.199 328.7 11 328 10.2
2010-12-06 07:53:29 51°14.369 2°55.186 327 11 327 10.3
2010-12-06 07:53:34 51°14.382 2°55.173 326.5 10.9 327 10.1
2010-12-06 07:53:39 51°14.395 2°55.16 326.5 11 327 9.6
2010-12-06 07:53:44 51°14.408 2°55.146 326.5 11 327 10.1
2010-12-06 07:53:49 51°14.42 2°55.133 326.3 11.1 326 10.2
2010-12-06 07:53:54 51°14.433 2°55.119 325.7 11.1 325 10
2010-12-06 07:53:59 51°14.446 2°55.105 325.5 11.2 326 -999
2010-12-06 07:54:04 51°14.459 2°55.09 325.2 11.3 325 10.8
2010-12-06 07:54:09 51°14.472 2°55.076 324.5 11.4 325 -999
2010-12-06 07:54:14 51°14.485 2°55.061 324.6 11.5 325 10.7
2010-12-06 07:54:19 51°14.498 2°55.046 324.8 11.6 324 -999
2010-12-06 07:54:24 51°14.511 2°55.031 324.5 11.8 324 11
2010-12-06 07:54:29 51°14.524 2°55.015 324.8 11.8 323 10.9
2010-12-06 07:54:33 51°14.534 2°55.002 324.6 11.9 320 11.5
2010-12-06 07:54:39 51°14.549 2°54.981 323.3 12 320 11
2010-12-06 07:54:43 51°14.559 2°54.967 323.2 12.1 319 11.2
2010-12-06 07:54:48 51°14.572 2°54.948 323.4 12.3 317 11.2
2010-12-06 07:54:53 51°14.584 2°54.929 322.6 12.4 315 11.2
2010-12-06 07:54:58 51°14.597 2°54.91 321.7 12.6 317 11.2
2010-12-06 07:55:03 51°14.61 2°54.891 323.1 12.5 319 11.1
2010-12-06 07:55:08 51°14.624 2°54.874 325 12.6 320 11.2
2010-12-06 07:55:13 51°14.637 2°54.856 326.3 12.7 322 11.1
2010-12-06 07:55:17 51°14.649 2°54.842 327.2 12.8 322 10.9
2010-12-06 07:55:22 51°14.663 2°54.825 327.4 12.8 322 11.3
2010-12-06 07:55:27 51°14.677 2°54.807 327.1 12.9 322 11.2
2010-12-06 07:55:32 51°14.691 2°54.79 327 13 322 11
2010-12-06 07:55:37 51°14.706 2°54.772 327.3 13 322 11.3
2010-12-06 07:55:41 51°14.718 2°54.758 327.6 13.1 324 11.1
2010-12-06 07:55:46 51°14.732 2°54.741 327.8 13.1 323 11.4
2010-12-06 07:55:51 51°14.747 2°54.724 327.5 13.1 323 11
2010-12-06 07:55:56 51°14.761 2°54.707 327.6 13.1 323 10.5
2010-12-06 07:56:01 51°14.776 2°54.69 327.8 13 323 11.1
2010-12-06 07:56:06 51°14.791 2°54.673 328.1 13.1 324 10.7
2010-12-06 07:56:11 51°14.806 2°54.657 328.2 13.2 325 11.4
2010-12-06 07:56:16 51°14.821 2°54.64 328.3 13.2 325 11.1
2010-12-06 07:56:21 51°14.836 2°54.623 328.5 13.2 325 11.2
2010-12-06 07:56:26 51°14.85 2°54.606 328.2 13.1 324 11.2
2010-12-06 07:56:31 51°14.865 2°54.589 328 13.1 325 11.4
2010-12-06 07:56:36 51°14.88 2°54.573 327.9 13.1 324 11.2
2010-12-06 07:56:41 51°14.895 2°54.556 328 13.2 325 11.3
2010-12-06 07:56:46 51°14.91 2°54.539 328.2 13.2 325 10.8
2010-12-06 07:56:51 51°14.925 2°54.523 328.2 13.1 325 10.3
2010-12-06 07:56:56 51°14.94 2°54.506 328.3 13 324 10.6
2010-12-06 07:57:01 51°14.955 2°54.489 328.3 13 325 10.6
2010-12-06 07:57:06 51°14.97 2°54.473 328 13.1 324 10.9
2010-12-06 07:57:11 51°14.984 2°54.456 327.9 13.1 325 10.7
2010-12-06 07:57:16 51°14.999 2°54.44 328 12.9 324 10.6
2010-12-06 07:57:21 51°15.013 2°54.423 327.9 13 324 10.7
2010-12-06 07:57:26 51°15.028 2°54.407 328.2 12.9 325 11
2010-12-06 07:57:31 51°15.043 2°54.39 328.4 12.9 325 11.3
2010-12-06 07:57:36 51°15.058 2°54.374 328.6 13 325 11.1
2010-12-06 07:57:41 51°15.072 2°54.357 328.6 13 324 10.3
2010-12-06 07:57:46 51°15.087 2°54.341 328.3 13 324 11
2010-12-06 07:57:51 51°15.103 2°54.324 328.3 13.1 325 11
2010-12-06 07:57:56 51°15.117 2°54.307 328.2 13.3 325 10.6
2010-12-06 07:58:01 51°15.132 2°54.29 328.2 13.1 324 11.4
2010-12-06 07:58:06 51°15.147 2°54.273 327.9 13.1 324 11.1
2010-12-06 07:58:11 51°15.162 2°54.256 327.9 13.2 324 10.9
2010-12-06 07:58:16 51°15.177 2°54.239 328.5 13.2 325 10.6
2010-12-06 07:58:21 51°15.192 2°54.222 329.1 13.1 325 10.7
2010-12-06 07:58:26 51°15.206 2°54.206 329.6 13 324 10.7
2010-12-06 07:58:31 51°15.221 2°54.188 329.4 13.2 323 11.2
2010-12-06 07:58:36 51°15.235 2°54.169 328 13.4 321 10.9
2010-12-06 07:58:41 51°15.249 2°54.15 326.7 13.3 319 11.2
2010-12-06 07:58:46 51°15.263 2°54.131 326.4 13.2 320 11
2010-12-06 07:58:51 51°15.277 2°54.112 326.1 13.1 319 11.1
2010-12-06 07:58:56 51°15.291 2°54.093 326.6 13.1 321 11.2
2010-12-06 07:59:01 51°15.306 2°54.075 326.9 13.2 321 10.7
2010-12-06 07:59:06 51°15.32 2°54.058 327.2 13.1 323 10.9
2010-12-06 07:59:11 51°15.334 2°54.04 327.2 13 322 11.1
2010-12-06 07:59:16 51°15.349 2°54.023 327.4 13.2 323 11.2
2010-12-06 07:59:21 51°15.363 2°54.005 326.8 13.3 322 11.5
2010-12-06 07:59:26 51°15.378 2°53.987 326.4 13.2 322 11
2010-12-06 07:59:31 51°15.392 2°53.968 326 13.2 321 11.4
2010-12-06 07:59:36 51°15.406 2°53.95 325.6 13.2 321 11.4
2010-12-06 07:59:41 51°15.42 2°53.931 325.6 13.2 321 11.4
2010-12-06 07:59:46 51°15.434 2°53.913 325.5 13.2 320 11.3
2010-12-06 07:59:51 51°15.448 2°53.894 325.4 13.2 320 11.8
2010-12-06 07:59:56 51°15.463 2°53.876 325.6 13.3 321 11.5
2010-12-06 08:00:01 51°15.477 2°53.857 326 13.3 321 11.6
2010-12-06 08:00:06 51°15.491 2°53.839 326 13.3 321 11.5
2010-12-06 08:00:11 51°15.505 2°53.82 326.1 13.2 321 11.4
2010-12-06 08:00:16 51°15.52 2°53.802 326.2 13.2 321 11.4
2010-12-06 08:00:21 51°15.534 2°53.783 326.1 13.3 321 11.5
2010-12-06 08:00:26 51°15.548 2°53.765 326 13.3 320 11.7
2010-12-06 08:00:31 51°15.563 2°53.746 326 13.3 321 11.9
2010-12-06 08:00:36 51°15.577 2°53.728 326.5 13.3 322 11.6
2010-12-06 08:00:41 51°15.591 2°53.71 326.7 13.3 322 10.7
2010-12-06 08:00:46 51°15.606 2°53.692 326.7 13.2 321 11.1
2010-12-06 08:00:51 51°15.62 2°53.673 326.5 13.4 322 11.2
2010-12-06 08:00:56 51°15.635 2°53.655 326.3 13.3 321 11.1
2010-12-06 08:01:01 51°15.649 2°53.636 326.2 13.3 321 11.1
2010-12-06 08:01:06 51°15.663 2°53.618 326.2 13.2 322 11
2010-12-06 08:01:11 51°15.678 2°53.6 326.6 13.3 322 11.2
2010-12-06 08:01:16 51°15.693 2°53.582 326.8 13.2 322 11.4
2010-12-06 08:01:21 51°15.707 2°53.564 326.8 13.3 322 11.7
2010-12-06 08:01:26 51°15.722 2°53.546 326.7 13.3 322 11.6
2010-12-06 08:01:31 51°15.735 2°53.528 326.3 13.1 321 11.4
2010-12-06 08:01:36 51°15.75 2°53.51 326.3 13.2 322 11.3
2010-12-06 08:01:41 51°15.765 2°53.492 326.2 13.2 322 11.2
2010-12-06 08:01:46 51°15.779 2°53.474 326.2 13.2 322 11.5
2010-12-06 08:01:51 51°15.794 2°53.457 327.1 13.1 325 11.2
2010-12-06 08:01:56 51°15.809 2°53.44 328.3 13.1 324 11.4
2010-12-06 08:02:01 51°15.824 2°53.424 329 12.9 325 12.1
2010-12-06 08:02:06 51°15.839 2°53.407 329.6 13 325 11.5
2010-12-06 08:02:11 51°15.855 2°53.392 330.2 13 327 11.5
2010-12-06 08:02:16 51°15.869 2°53.376 330.9 13.1 326 12.2
2010-12-06 08:02:21 51°15.885 2°53.36 331.1 13 327 11.5
2010-12-06 08:02:26 51°15.899 2°53.344 331.6 13 327 11.4
2010-12-06 08:02:31 51°15.915 2°53.329 331.5 13 327 11.5
2010-12-06 08:02:36 51°15.929 2°53.313 331.4 12.9 326 11.5
2010-12-06 08:02:41 51°15.944 2°53.297 331.2 13 326 11.5
2010-12-06 08:02:46 51°15.959 2°53.281 331.4 13 326 11.5
2010-12-06 08:02:51 51°15.974 2°53.265 331.5 12.9 326 11.6
2010-12-06 08:02:56 51°15.989 2°53.249 331.4 13 325 11.5
2010-12-06 08:03:01 51°16.003 2°53.233 331.2 12.8 325 11.5
2010-12-06 08:03:06 51°16.019 2°53.217 331.4 12.9 325 11.5
2010-12-06 08:03:11 51°16.033 2°53.201 331.2 13 326 11.6
2010-12-06 08:03:16 51°16.048 2°53.185 331.2 13 326 11.5
2010-12-06 08:03:21 51°16.064 2°53.169 331.1 13 327 11.5
2010-12-06 08:03:26 51°16.079 2°53.154 331.3 13 327 11.5
2010-12-06 08:03:31 51°16.094 2°53.139 332.2 12.9 329 11.8
2010-12-06 08:03:36 51°16.109 2°53.123 332.6 13 327 11.8
2010-12-06 08:03:41 51°16.125 2°53.109 333 13 329 11.7
2010-12-06 08:03:46 51°16.14 2°53.094 333.6 12.9 329 11.7
2010-12-06 08:03:51 51°16.156 2°53.079 334 13 330 11.6
2010-12-06 08:03:56 51°16.171 2°53.064 334.2 12.9 329 11.7
2010-12-06 08:04:01 51°16.187 2°53.05 334.5 13 330 11.8
2010-12-06 08:04:06 51°16.202 2°53.036 334.7 13 330 11.6
2010-12-06 08:04:11 51°16.218 2°53.022 334.8 12.9 330 11.6
2010-12-06 08:04:16 51°16.233 2°53.007 334.9 12.9 330 11.6
2010-12-06 08:04:21 51°16.249 2°52.994 335.9 12.8 332 11.8
2010-12-06 08:04:26 51°16.266 2°52.981 336.6 13 333 11.8
2010-12-06 08:04:31 51°16.281 2°52.969 337.5 12.9 334 11.8
2010-12-06 08:04:36 51°16.297 2°52.956 337.6 12.9 334 11.5
2010-12-06 08:04:41 51°16.313 2°52.944 337.9 12.9 335 11.9
2010-12-06 08:04:46 51°16.329 2°52.932 338 12.8 334 11.9
2010-12-06 08:04:51 51°16.344 2°52.92 337.9 12.7 334 11.7
2010-12-06 08:04:56 51°16.361 2°52.907 337.7 12.7 334 11.6
2010-12-06 08:05:01 51°16.377 2°52.895 337.7 12.8 335 11.9
2010-12-06 08:05:05 51°16.389 2°52.885 337.6 12.8 334 11.8
2010-12-06 08:05:11 51°16.408 2°52.87 337.3 12.7 334 11.8
2010-12-06 08:05:16 51°16.424 2°52.858 337.3 12.7 334 11.7
2010-12-06 08:05:21 51°16.44 2°52.846 337.5 12.7 334 11.8
2010-12-06 08:05:26 51°16.456 2°52.834 337.6 12.7 334 11.6
2010-12-06 08:05:31 51°16.472 2°52.822 337.7 12.6 335 11.9
2010-12-06 08:05:36 51°16.488 2°52.81 337.7 12.7 335 11.7
2010-12-06 08:05:41 51°16.503 2°52.798 337.7 12.7 335 11.7
2010-12-06 08:05:46 51°16.519 2°52.785 337.7 12.6 334 11.6
2010-12-06 08:05:51 51°16.535 2°52.773 337.7 12.6 334 11.5
2010-12-06 08:05:56 51°16.551 2°52.761 337.6 12.6 334 11.5
2010-12-06 08:06:01 51°16.567 2°52.749 337.6 12.6 335 11.5
2010-12-06 08:06:06 51°16.583 2°52.738 337.9 12.7 335 11.5
2010-12-06 08:06:11 51°16.599 2°52.725 338 12.7 335 11.5
2010-12-06 08:06:16 51°16.615 2°52.713 337.7 12.6 335 11.1
2010-12-06 08:06:21 51°16.631 2°52.702 337.8 12.5 335 10.9
2010-12-06 08:06:26 51°16.647 2°52.69 337.8 12.6 334 11.1
2010-12-06 08:06:31 51°16.663 2°52.681 339.9 12.5 340 11
2010-12-06 08:06:36 51°16.679 2°52.669 340.5 12.5 337 10.8
2010-12-06 08:06:41 51°16.695 2°52.661 342.3 12.3 342 10.5
2010-12-06 08:06:46 51°16.712 2°52.651 343.1 12.4 339 10.3
2010-12-06 08:06:51 51°16.728 2°52.643 344.1 12.2 343 10.1
2010-12-06 08:06:56 51°16.744 2°52.634 344.7 12.3 341 9.9
2010-12-06 08:07:01 51°16.761 2°52.627 345.4 12.3 344 9.7
2010-12-06 08:07:06 51°16.777 2°52.619 345.9 12.3 342 9.7
2010-12-06 08:07:11 51°16.793 2°52.612 346.3 12.3 345 9.6
2010-12-06 08:07:16 51°16.809 2°52.604 346.6 12.2 344 9.7
2010-12-06 08:07:21 51°16.826 2°52.601 349.2 12.1 351 9.5
2010-12-06 08:07:26 51°16.842 2°52.596 352 12.2 350 9.6
2010-12-06 08:07:31 51°16.859 2°52.593 354.2 12 355 9.6
2010-12-06 08:07:36 51°16.876 2°52.59 356.2 12 353 9.5
2010-12-06 08:07:41 51°16.892 2°52.589 357.5 11.9 357 9.7
2010-12-06 08:07:46 51°16.909 2°52.587 359.1 11.9 357 9.5
2010-12-06 08:07:51 51°16.926 2°52.586 0.1 11.9 358 9.8
2010-12-06 08:07:56 51°16.943 2°52.586 1 12.1 359 9.7
2010-12-06 08:08:01 51°16.959 2°52.586 1.6 12 -999 9.6
2010-12-06 08:08:06 51°16.976 2°52.586 2.5 12.1 -999 9.6
2010-12-06 08:08:11 51°16.993 2°52.587 2.9 11.9 1 9.8
2010-12-06 08:08:16 51°17.009 2°52.587 3.2 11.9 1 9.5
2010-12-06 08:08:21 51°17.026 2°52.588 3.6 12 1 9.5
2010-12-06 08:08:26 51°17.043 2°52.589 3.6 12 1 9.7
2010-12-06 08:08:31 51°17.059 2°52.589 3.5 12 1 9.8
2010-12-06 08:08:36 51°17.076 2°52.589 3.1 11.9 -999 9.6
2010-12-06 08:08:41 51°17.093 2°52.589 2.8 12 -999 9.5
2010-12-06 08:08:46 51°17.109 2°52.589 2.2 12.1 -999 9.4
2010-12-06 08:08:51 51°17.126 2°52.588 2.1 12 359 9.6
2010-12-06 08:08:56 51°17.142 2°52.586 0.8 12.1 356 9.5
2010-12-06 08:09:01 51°17.159 2°52.583 358 12.2 353 9.6
2010-12-06 08:09:06 51°17.175 2°52.58 356.7 12.1 354 9.7
2010-12-06 08:09:11 51°17.192 2°52.574 354.8 12.1 349 9.5
2010-12-06 08:09:16 51°17.208 2°52.57 354.1 12 351 9.8
2010-12-06 08:09:21 51°17.225 2°52.563 352.1 12.2 346 9.9
2010-12-06 08:09:26 51°17.242 2°52.559 351.6 12.2 350 9.9
2010-12-06 08:09:31 51°17.258 2°52.551 351 12.3 345 9.9
2010-12-06 08:09:36 51°17.274 2°52.547 350.7 12.2 349 10
2010-12-06 08:09:41 51°17.291 2°52.54 350.7 12.2 346 10
2010-12-06 08:09:45 51°17.304 2°52.535 350.2 12.2 347 10
2010-12-06 08:09:51 51°17.324 2°52.527 350.2 12.2 346 10
2010-12-06 08:09:56 51°17.34 2°52.521 350.2 12.2 347 10.1
2010-12-06 08:10:01 51°17.357 2°52.515 350.3 12.2 347 10
2010-12-06 08:10:06 51°17.374 2°52.509 350.3 12.2 347 10.1
2010-12-06 08:10:11 51°17.39 2°52.502 350.4 12.2 346 10.4
2010-12-06 08:10:16 51°17.406 2°52.496 350.2 12.2 346 10.2
2010-12-06 08:10:21 51°17.423 2°52.489 350.2 12.2 346 10.2
2010-12-06 08:10:26 51°17.439 2°52.484 350.1 12.3 347 10.2
2010-12-06 08:10:31 51°17.456 2°52.477 350.3 12.2 346 10.4
2010-12-06 08:10:36 51°17.472 2°52.472 350.6 12.2 347 10.3
2010-12-06 08:10:41 51°17.489 2°52.465 350.7 12.2 347 10
2010-12-06 08:10:46 51°17.505 2°52.459 350.7 12.2 346 10.3
2010-12-06 08:10:51 51°17.522 2°52.453 350.6 12.3 347 10.2
2010-12-06 08:10:56 51°17.538 2°52.447 350.7 12.3 347 10
2010-12-06 08:11:01 51°17.555 2°52.44 350.9 12.2 347 10.1
2010-12-06 08:11:06 51°17.571 2°52.434 351 12.3 347 10.2
2010-12-06 08:11:11 51°17.587 2°52.428 350.7 12 347 10.2
2010-12-06 08:11:16 51°17.604 2°52.422 350.6 12.1 346 10.6
2010-12-06 08:11:21 51°17.62 2°52.415 349.9 12.1 345 10.6
2010-12-06 08:11:26 51°17.637 2°52.409 349.8 12.3 346 9.9
2010-12-06 08:11:31 51°17.653 2°52.403 350.1 12.1 347 10
2010-12-06 08:11:36 51°17.669 2°52.395 350.3 12 345 10.2
2010-12-06 08:11:41 51°17.685 2°52.389 349.9 12 346 10.3
2010-12-06 08:11:46 51°17.701 2°52.383 350.2 12 347 10.3
2010-12-06 08:11:51 51°17.718 2°52.377 350.3 12.1 346 10.2
2010-12-06 08:11:56 51°17.734 2°52.371 350.6 12.1 347 10.1
2010-12-06 08:12:01 51°17.75 2°52.364 350.7 12.1 346 10.1
2010-12-06 08:12:05 51°17.763 2°52.359 350.7 12 347 10.4
2010-12-06 08:12:11 51°17.783 2°52.351 350.4 12.1 346 10.1
2010-12-06 08:12:16 51°17.799 2°52.345 350.2 12.2 346 10.3
2010-12-06 08:12:21 51°17.816 2°52.338 350.1 12.2 346 10.4
2010-12-06 08:12:26 51°17.832 2°52.331 350.1 12.2 346 10.3
2010-12-06 08:12:31 51°17.848 2°52.325 350.1 12.2 346 10.1
2010-12-06 08:12:36 51°17.865 2°52.318 350 12.2 345 10.5
2010-12-06 08:12:41 51°17.881 2°52.312 350.1 12.1 346 10.2
2010-12-06 08:12:46 51°17.897 2°52.305 349.9 12.2 345 10.4
2010-12-06 08:12:51 51°17.914 2°52.299 350 12.2 347 10.3
2010-12-06 08:12:56 51°17.93 2°52.292 350.2 12.3 345 10.3
2010-12-06 08:13:01 51°17.946 2°52.285 350.2 12.3 346 10.3
2010-12-06 08:13:06 51°17.962 2°52.278 350.2 12.2 345 10.4
2010-12-06 08:13:11 51°17.979 2°52.271 349.9 12.2 346 10.5
2010-12-06 08:13:16 51°17.995 2°52.264 349.9 12.2 345 10.6
2010-12-06 08:13:21 51°18.012 2°52.257 349.8 12.2 345 10.9
2010-12-06 08:13:26 51°18.028 2°52.25 350.1 12.3 346 11
2010-12-06 08:13:31 51°18.045 2°52.243 349.9 12.3 345 10.9
2010-12-06 08:13:36 51°18.061 2°52.237 349.9 12.3 346 11.1
2010-12-06 08:13:41 51°18.078 2°52.23 350.1 12.3 345 11.3
2010-12-06 08:13:46 51°18.094 2°52.223 350 12.2 346 11.1
2010-12-06 08:13:51 51°18.111 2°52.216 350.4 12.3 345 11
2010-12-06 08:13:56 51°18.127 2°52.21 350.3 12.3 346 11.2
2010-12-06 08:14:01 51°18.143 2°52.203 350.6 12.2 346 11.2
2010-12-06 08:14:06 51°18.16 2°52.196 350.5 12.3 345 11.2
2010-12-06 08:14:11 51°18.177 2°52.19 350.7 12.3 346 11.2
2010-12-06 08:14:16 51°18.193 2°52.183 350.4 12.2 345 11.2
2010-12-06 08:14:21 51°18.21 2°52.176 350.6 12.4 346 11.3
2010-12-06 08:14:26 51°18.226 2°52.169 350.2 12.3 345 11.3
2010-12-06 08:14:31 51°18.242 2°52.162 350.2 12.1 345 11.4
2010-12-06 08:14:36 51°18.259 2°52.155 350 12.4 344 11.6
2010-12-06 08:14:41 51°18.275 2°52.148 349.9 12.4 345 11.3
2010-12-06 08:14:46 51°18.292 2°52.141 350.2 12.3 345 11.5
2010-12-06 08:14:51 51°18.308 2°52.133 350.1 12.2 345 11.5
2010-12-06 08:14:56 51°18.324 2°52.126 350.2 12.2 345 11.3
2010-12-06 08:15:01 51°18.341 2°52.119 350.4 12.2 345 11.2
2010-12-06 08:15:06 51°18.357 2°52.112 350.6 12.2 345 11.4
2010-12-06 08:15:11 51°18.373 2°52.106 350.6 12.2 346 11.2
2010-12-06 08:15:16 51°18.39 2°52.099 350.7 12.2 345 11.3
2010-12-06 08:15:21 51°18.406 2°52.092 350.4 12.2 345 11.4
2010-12-06 08:15:26 51°18.423 2°52.085 350.6 12.2 346 11.7
2010-12-06 08:15:31 51°18.439 2°52.079 350.2 12.2 345 11.5
2010-12-06 08:15:36 51°18.455 2°52.072 350.6 12.2 345 11.5
2010-12-06 08:15:41 51°18.472 2°52.064 350 12.2 344 11.7
2010-12-06 08:15:46 51°18.488 2°52.058 350 12.2 346 11.8
2010-12-06 08:15:51 51°18.505 2°52.051 350.2 12.3 345 11.6
2010-12-06 08:15:56 51°18.521 2°52.044 350.3 12.3 345 11.6
2010-12-06 08:16:01 51°18.537 2°52.036 350.3 12.3 344 11.8
2010-12-06 08:16:06 51°18.554 2°52.029 350.3 12.3 345 12.2
2010-12-06 08:16:11 51°18.57 2°52.022 350 12.4 344 12.2
2010-12-06 08:16:16 51°18.587 2°52.015 349.9 12.3 345 12.1
2010-12-06 08:16:21 51°18.603 2°52.007 350.2 12.3 344 12.3
2010-12-06 08:16:26 51°18.62 2°51.999 349.9 12.3 344 12.3
2010-12-06 08:16:31 51°18.636 2°51.992 350.1 12.3 345 12.4
2010-12-06 08:16:36 51°18.653 2°51.985 350.3 12.3 345 12.7
2010-12-06 08:16:41 51°18.669 2°51.978 350.6 12.3 345 13
2010-12-06 08:16:46 51°18.686 2°51.971 350.7 12.4 345 12.9
2010-12-06 08:16:51 51°18.702 2°51.963 350.5 12.3 345 13
2010-12-06 08:16:56 51°18.719 2°51.957 350.6 12.5 345 12.9
2010-12-06 08:17:01 51°18.736 2°51.949 350.1 12.6 344 13
2010-12-06 08:17:06 51°18.752 2°51.942 350 12.4 345 13.1
2010-12-06 08:17:11 51°18.769 2°51.934 350.1 12.3 343 13.4
2010-12-06 08:17:16 51°18.785 2°51.927 350 12.4 344 13.6
2010-12-06 08:17:21 51°18.802 2°51.919 349.9 12.4 343 13.4
2010-12-06 08:17:26 51°18.818 2°51.911 349.9 12.4 344 13.4
2010-12-06 08:17:31 51°18.834 2°51.904 350 12.4 344 13.8
2010-12-06 08:17:36 51°18.851 2°51.896 349.9 12.4 344 13.6
2010-12-06 08:17:41 51°18.867 2°51.888 350 12.4 344 13.7
2010-12-06 08:17:46 51°18.884 2°51.88 350 12.4 343 14
2010-12-06 08:17:51 51°18.9 2°51.872 350 12.3 344 14
2010-12-06 08:17:56 51°18.917 2°51.864 350.1 12.3 343 14
2010-12-06 08:18:01 51°18.933 2°51.857 350 12.4 344 14
2010-12-06 08:18:06 51°18.949 2°51.849 350 12.4 343 14
2010-12-06 08:18:11 51°18.966 2°51.841 350.6 12.4 344 13.9
2010-12-06 08:18:16 51°18.982 2°51.834 350.6 12.3 344 14.2
2010-12-06 08:18:21 51°18.999 2°51.827 350.9 12.3 345 14.6
2010-12-06 08:18:26 51°19.015 2°51.819 350.7 12.3 344 14.7
2010-12-06 08:18:31 51°19.031 2°51.811 350.7 12.3 344 14.7
2010-12-06 08:18:36 51°19.048 2°51.803 350.7 12.3 343 14.5
2010-12-06 08:18:41 51°19.064 2°51.795 350.3 12.3 343 14.7
2010-12-06 08:18:46 51°19.08 2°51.788 350.3 12.2 343 15.1
2010-12-06 08:18:51 51°19.096 2°51.78 350.3 12.2 343 15.4
2010-12-06 08:18:56 51°19.113 2°51.771 350.3 12.3 343 15.3
2010-12-06 08:19:01 51°19.129 2°51.764 350.6 12.3 343 15.3
2010-12-06 08:19:06 51°19.145 2°51.756 350.1 12.2 342 15.3
2010-12-06 08:19:11 51°19.161 2°51.748 350.7 12.2 344 15.3
2010-12-06 08:19:16 51°19.178 2°51.74 350.6 12.3 343 15.3
2010-12-06 08:19:21 51°19.194 2°51.733 350.6 12.3 344 15.3
2010-12-06 08:19:26 51°19.21 2°51.725 350.7 12.3 343 15.6
2010-12-06 08:19:31 51°19.227 2°51.717 350.6 12.3 343 15.7
2010-12-06 08:19:36 51°19.243 2°51.708 350.4 12.4 342 15.7
2010-12-06 08:19:41 51°19.259 2°51.7 350.2 12.4 342 15.6
2010-12-06 08:19:46 51°19.276 2°51.691 349.9 12.4 342 15.8
2010-12-06 08:19:51 51°19.292 2°51.683 349.9 12.3 342 15.4
2010-12-06 08:19:56 51°19.308 2°51.675 350.2 12.4 342 15.5
2010-12-06 08:20:01 51°19.325 2°51.666 350.1 12.3 342 15.8
2010-12-06 08:20:06 51°19.341 2°51.657 350.2 12.3 342 16
2010-12-06 08:20:11 51°19.357 2°51.649 350.2 12.3 342 15.7
2010-12-06 08:20:16 51°19.373 2°51.641 350.3 12.3 342 15.8
2010-12-06 08:20:21 51°19.39 2°51.633 350.3 12.4 342 15.6
2010-12-06 08:20:26 51°19.406 2°51.624 350.3 12.3 342 15.8
2010-12-06 08:20:31 51°19.422 2°51.616 350.2 12.3 342 15.8
2010-12-06 08:20:36 51°19.438 2°51.607 350.2 12.4 342 16
2010-12-06 08:20:41 51°19.455 2°51.599 350.1 12.4 342 15.7
2010-12-06 08:20:45 51°19.468 2°51.592 350 12.3 342 15.7
2010-12-06 08:20:51 51°19.487 2°51.582 350.1 12.4 342 15.6
2010-12-06 08:20:56 51°19.504 2°51.573 350.1 12.4 342 15.7
2010-12-06 08:21:01 51°19.52 2°51.566 350.5 12.4 343 15.7
2010-12-06 08:21:06 51°19.536 2°51.557 350.5 12.4 342 15.6
2010-12-06 08:21:11 51°19.553 2°51.549 350.2 12.3 342 15.3
2010-12-06 08:21:16 51°19.569 2°51.54 350.3 12.4 342 15.7
2010-12-06 08:21:21 51°19.586 2°51.532 350 12.4 342 15.5
2010-12-06 08:21:26 51°19.602 2°51.523 350.1 12.4 342 15.3
2010-12-06 08:21:31 51°19.618 2°51.515 350.1 12.4 342 15.2
2010-12-06 08:21:36 51°19.634 2°51.506 350.3 12.4 342 15.4
2010-12-06 08:21:41 51°19.651 2°51.498 350.6 12.4 342 15.3
2010-12-06 08:21:46 51°19.667 2°51.489 350.7 12.5 343 15
2010-12-06 08:21:51 51°19.684 2°51.481 350.6 12.4 342 14.9
2010-12-06 08:21:56 51°19.7 2°51.473 350.3 12.4 342 15.2
2010-12-06 08:22:01 51°19.717 2°51.465 350.2 12.4 342 15.4
2010-12-06 08:22:06 51°19.734 2°51.457 350.3 12.5 343 15.1
2010-12-06 08:22:11 51°19.75 2°51.449 350.6 12.5 342 15
2010-12-06 08:22:16 51°19.766 2°51.44 350.3 12.5 342 14.6
2010-12-06 08:22:21 51°19.783 2°51.432 350.3 12.4 343 14.7
2010-12-06 08:22:26 51°19.799 2°51.424 350.6 12.4 343 14.6
2010-12-06 08:22:31 51°19.816 2°51.416 350.6 12.3 343 15
2010-12-06 08:22:36 51°19.832 2°51.408 350.7 12.4 343 14.5
2010-12-06 08:22:41 51°19.848 2°51.4 350.6 12.4 343 14.6
2010-12-06 08:22:46 51°19.865 2°51.392 350.7 12.4 344 14.5
2010-12-06 08:22:51 51°19.881 2°51.384 350.7 12.4 343 14.3
2010-12-06 08:22:56 51°19.898 2°51.378 350.7 12.5 343 14.5
2010-12-06 08:23:01 51°19.915 2°51.369 350.7 12.5 343 14.4
2010-12-06 08:23:06 51°19.931 2°51.362 350.5 12.5 343 13.9
2010-12-06 08:23:11 51°19.948 2°51.353 350.2 12.6 343 13.8
2010-12-06 08:23:16 51°19.964 2°51.345 350.2 12.4 343 13.6
2010-12-06 08:23:21 51°19.981 2°51.336 350 12.5 342 13.7
2010-12-06 08:23:26 51°19.997 2°51.328 349.9 12.6 343 13.3
2010-12-06 08:23:31 51°20.013 2°51.32 350.1 12.5 343 13.1
2010-12-06 08:23:36 51°20.03 2°51.312 350.3 12.4 343 13.1
2010-12-06 08:23:41 51°20.046 2°51.304 350.3 12.4 343 13
2010-12-06 08:23:46 51°20.063 2°51.296 350.2 12.4 343 13.1
2010-12-06 08:23:51 51°20.08 2°51.289 350 12.5 343 12.9
2010-12-06 08:23:56 51°20.096 2°51.281 350.2 12.5 344 12.6
2010-12-06 08:24:01 51°20.112 2°51.273 350.7 12.3 344 12.5
2010-12-06 08:24:06 51°20.129 2°51.265 350.6 12.4 343 12.5
2010-12-06 08:24:11 51°20.146 2°51.257 350.3 12.5 343 12.7
2010-12-06 08:24:16 51°20.163 2°51.249 350.1 12.6 344 12.9
2010-12-06 08:24:21 51°20.179 2°51.242 350.2 12.7 343 13
2010-12-06 08:24:26 51°20.196 2°51.233 350.3 12.6 343 13.2
2010-12-06 08:24:31 51°20.212 2°51.225 350.3 12.7 343 13.4
2010-12-06 08:24:36 51°20.229 2°51.217 350.2 12.4 343 13.3
2010-12-06 08:24:41 51°20.245 2°51.21 350.2 12.4 344 14.2
2010-12-06 08:24:46 51°20.262 2°51.202 350.2 12.6 344 14.1
2010-12-06 08:24:51 51°20.279 2°51.194 350.3 12.6 343 14.2
2010-12-06 08:24:56 51°20.296 2°51.186 350.2 12.6 343 14.6
2010-12-06 08:25:01 51°20.312 2°51.177 350 12.6 343 15
2010-12-06 08:25:06 51°20.329 2°51.169 350 12.7 343 14.8
2010-12-06 08:25:11 51°20.346 2°51.161 349.9 12.7 342 15.2
2010-12-06 08:25:16 51°20.362 2°51.152 350.2 12.7 342 15.6
2010-12-06 08:25:21 51°20.379 2°51.144 350.1 12.6 342 15.5
2010-12-06 08:25:25 51°20.392 2°51.137 350.1 12.7 342 15.9
2010-12-06 08:25:31 51°20.412 2°51.126 350.1 12.6 342 16.1
2010-12-06 08:25:36 51°20.429 2°51.118 350.1 12.7 342 16.3
2010-12-06 08:25:41 51°20.446 2°51.109 350.1 12.7 342 16.4
2010-12-06 08:25:46 51°20.463 2°51.101 350.1 12.7 342 16.3
2010-12-06 08:25:51 51°20.479 2°51.092 350.2 12.8 342 16.7
2010-12-06 08:25:56 51°20.496 2°51.083 349.9 12.7 342 16.8
2010-12-06 08:26:01 51°20.513 2°51.074 350.1 12.6 342 16.5
2010-12-06 08:26:06 51°20.529 2°51.065 350.1 12.7 341 16.4
2010-12-06 08:26:11 51°20.546 2°51.057 349.9 12.5 343 16.8
2010-12-06 08:26:16 51°20.563 2°51.048 350.2 12.7 342 16.9
2010-12-06 08:26:21 51°20.58 2°51.039 350.2 12.6 342 17
2010-12-06 08:26:26 51°20.597 2°51.031 350.3 12.6 342 17
2010-12-06 08:26:31 51°20.613 2°51.022 350.2 12.7 342 17.1
2010-12-06 08:26:36 51°20.63 2°51.014 349.9 12.7 343 17.2
2010-12-06 08:26:41 51°20.647 2°51.005 350.1 12.7 342 17.5
2010-12-06 08:26:46 51°20.664 2°50.996 349.9 12.7 342 17.5
2010-12-06 08:26:51 51°20.68 2°50.987 350 12.6 342 17.8
2010-12-06 08:26:56 51°20.697 2°50.978 350 12.7 342 17.9
2010-12-06 08:27:01 51°20.714 2°50.969 350 12.8 341 18.1
2010-12-06 08:27:06 51°20.73 2°50.961 350.1 12.5 342 18.8
2010-12-06 08:27:11 51°20.747 2°50.951 350.4 12.7 341 18.9
2010-12-06 08:27:16 51°20.764 2°50.942 350.2 12.7 342 18.8
2010-12-06 08:27:21 51°20.781 2°50.934 350.3 12.7 342 19
2010-12-06 08:27:26 51°20.798 2°50.925 350.4 12.7 342 19.8
2010-12-06 08:27:31 51°20.815 2°50.917 350.6 12.8 343 19.7
2010-12-06 08:27:36 51°20.831 2°50.911 352.7 12.5 348 20.2
2010-12-06 08:27:41 51°20.848 2°50.907 356.1 12.5 350 20.4
2010-12-06 08:27:46 51°20.865 2°50.903 359 12.4 352 20.3
2010-12-06 08:27:51 51°20.882 2°50.901 1.9 12.2 355 20.5
2010-12-06 08:27:56 51°20.899 2°50.901 3.8 12.2 358 21
2010-12-06 08:28:01 51°20.916 2°50.901 5.8 12 1 21.1
2010-12-06 08:28:06 51°20.932 2°50.906 10.8 11.7 9 21.3
2010-12-06 08:28:11 51°20.947 2°50.913 17.8 11.3 17 21.6
2010-12-06 08:28:16 51°20.961 2°50.921 22.6 11.2 19 21.5
2010-12-06 08:28:21 51°20.976 2°50.931 25.5 11.3 22 21.7
2010-12-06 08:28:26 51°20.99 2°50.941 28.4 11.3 25 21.4
2010-12-06 08:28:31 51°21.004 2°50.953 30.4 11.4 26 21.7
2010-12-06 08:28:36 51°21.019 2°50.964 30.7 11.5 26 21.9
2010-12-06 08:28:41 51°21.033 2°50.976 32 11.4 28 21.9
2010-12-06 08:28:46 51°21.047 2°50.988 33 11.4 29 22.2
2010-12-06 08:28:51 51°21.061 2°51.001 33.2 11.5 29 22.3
2010-12-06 08:28:56 51°21.075 2°51.013 33.9 11.5 29 22.4
2010-12-06 08:29:01 51°21.089 2°51.026 34.3 11.6 30 22.2
2010-12-06 08:29:06 51°21.102 2°51.038 34.9 11.5 29 22.3
2010-12-06 08:29:11 51°21.116 2°51.052 34.9 11.5 31 22.4
2010-12-06 08:29:16 51°21.13 2°51.064 34.9 11.6 28 22.5
2010-12-06 08:29:21 51°21.144 2°51.077 34.7 11.5 30 22.5
2010-12-06 08:29:26 51°21.158 2°51.09 34.9 11.4 31 22.8
2010-12-06 08:29:31 51°21.171 2°51.102 34.9 11.6 30 22.6
2010-12-06 08:29:36 51°21.185 2°51.116 35.7 11.5 31 22.9
2010-12-06 08:29:41 51°21.199 2°51.128 34.7 11.5 29 23.1
2010-12-06 08:29:46 51°21.212 2°51.142 35.2 11.5 32 23
2010-12-06 08:29:51 51°21.226 2°51.154 34.7 11.6 29 23
2010-12-06 08:29:56 51°21.24 2°51.167 35.3 11.6 31 22.9
2010-12-06 08:30:01 51°21.254 2°51.18 34.7 11.5 29 23.1
2010-12-06 08:30:06 51°21.268 2°51.193 34.9 11.5 31 23.3
2010-12-06 08:30:11 51°21.282 2°51.205 34.9 11.6 29 23.2
2010-12-06 08:30:16 51°21.296 2°51.218 35.7 11.6 30 23.5
2010-12-06 08:30:21 51°21.309 2°51.231 34.5 11.5 29 24
2010-12-06 08:30:26 51°21.323 2°51.243 34.2 11.5 29 23.4
2010-12-06 08:30:31 51°21.337 2°51.256 35 11.5 29 23.4
2010-12-06 08:30:36 51°21.351 2°51.269 34.3 11.5 31 23.7
2010-12-06 08:30:41 51°21.365 2°51.281 34.9 11.5 30 23.8
2010-12-06 08:30:46 51°21.379 2°51.295 35 11.6 31 23.8
2010-12-06 08:30:51 51°21.393 2°51.306 34.5 11.5 29 23.6
2010-12-06 08:30:56 51°21.407 2°51.32 35 11.5 30 23.8
2010-12-06 08:31:01 51°21.421 2°51.331 34.1 11.5 27 24.3
2010-12-06 08:31:06 51°21.436 2°51.342 32.1 11.6 24 23.8
2010-12-06 08:31:11 51°21.45 2°51.353 31.3 11.5 25 23.9
2010-12-06 08:31:16 51°21.465 2°51.361 29.1 11.6 21 24.1
2010-12-06 08:31:21 51°21.48 2°51.372 29.1 11.7 25 24
2010-12-06 08:31:26 51°21.495 2°51.38 26.4 11.7 18 24
2010-12-06 08:31:31 51°21.51 2°51.391 26.4 11.6 23 24
2010-12-06 08:31:36 51°21.527 2°51.395 24.2 11.8 13 23.9
2010-12-06 08:31:41 51°21.542 2°51.404 23 11.7 19 24.3
2010-12-06 08:31:46 51°21.558 2°51.409 21.2 11.8 12 24.3
2010-12-06 08:31:51 51°21.574 2°51.416 21.3 11.9 15 24.2
2010-12-06 08:31:56 51°21.59 2°51.42 20.2 11.9 10 24.2
2010-12-06 08:32:01 51°21.606 2°51.427 18.9 11.9 13 24.3
2010-12-06 08:32:06 51°21.623 2°51.43 17.6 12 8 24.6
2010-12-06 08:32:11 51°21.639 2°51.435 16.9 12 12 24.5
2010-12-06 08:32:16 51°21.656 2°51.437 15.9 12.1 4 24.1
2010-12-06 08:32:21 51°21.673 2°51.442 15.5 12.1 9 24.5
2010-12-06 08:32:26 51°21.69 2°51.441 12.5 12.3 1 24.6
2010-12-06 08:32:31 51°21.706 2°51.443 11.2 12.2 2 24.2
2010-12-06 08:32:36 51°21.723 2°51.442 10.2 12.3 359 24.7
2010-12-06 08:32:41 51°21.741 2°51.44 5.9 12.4 355 24.4
2010-12-06 08:32:46 51°21.758 2°51.437 3.9 12.4 354 24.5
2010-12-06 08:32:51 51°21.775 2°51.433 3 12.4 353 24.6
2010-12-06 08:32:56 51°21.792 2°51.429 0.6 12.5 351 24.7
2010-12-06 08:33:01 51°21.81 2°51.423 359 12.7 350 24.9
2010-12-06 08:33:06 51°21.826 2°51.415 355.3 12.9 343 24.8
2010-12-06 08:33:11 51°21.844 2°51.41 355.1 12.8 348 24.5
2010-12-06 08:33:16 51°21.861 2°51.4 354.4 13.1 342 23.9
2010-12-06 08:33:21 51°21.878 2°51.393 353 12.9 345 24
2010-12-06 08:33:26 51°21.896 2°51.385 352.8 13 344 24.4
2010-12-06 08:33:31 51°21.913 2°51.376 351.8 13.1 343 24.5
2010-12-06 08:33:36 51°21.93 2°51.368 351.7 12.8 343 24.2
2010-12-06 08:33:41 51°21.947 2°51.359 351.3 12.9 342 24.4
2010-12-06 08:33:46 51°21.965 2°51.35 351.1 13.1 343 24.3
2010-12-06 08:33:51 51°21.982 2°51.341 351 13.2 343 24.1
2010-12-06 08:33:56 51°21.999 2°51.333 351 13.1 342 24
2010-12-06 08:34:01 51°22.017 2°51.324 351.5 13.1 343 24.2
2010-12-06 08:34:06 51°22.034 2°51.315 351.6 13.1 343 23.8
2010-12-06 08:34:11 51°22.051 2°51.305 350 13.3 340 23.6
2010-12-06 08:34:16 51°22.068 2°51.297 349.8 13.1 342 23.6
2010-12-06 08:34:21 51°22.085 2°51.285 348.4 13.2 338 23.5
2010-12-06 08:34:25 51°22.099 2°51.278 348.3 13.1 341 23.8
2010-12-06 08:34:31 51°22.119 2°51.264 347.2 13.1 337 23.5
2010-12-06 08:34:36 51°22.136 2°51.256 347.5 13 341 23.3
2010-12-06 08:34:41 51°22.153 2°51.244 346.8 13.3 337 23.2
2010-12-06 08:34:46 51°22.17 2°51.234 347.2 13 340 23.4
2010-12-06 08:34:50 51°22.183 2°51.225 346.3 13.1 338 23.8
2010-12-06 08:34:56 51°22.204 2°51.213 346.7 13.1 340 23.6
2010-12-06 08:35:01 51°22.221 2°51.202 346.9 13.2 338 23.6
2010-12-06 08:35:06 51°22.238 2°51.192 346.9 13.2 339 23.6
2010-12-06 08:35:11 51°22.255 2°51.181 347 13.1 338 23.2
2010-12-06 08:35:16 51°22.272 2°51.171 347 13 340 23.6
2010-12-06 08:35:21 51°22.289 2°51.161 347 13 339 24
2010-12-06 08:35:26 51°22.306 2°51.15 347.1 13 339 23.5
2010-12-06 08:35:31 51°22.323 2°51.141 347.4 13.1 341 23.6
2010-12-06 08:35:36 51°22.34 2°51.13 347.5 13 339 23.5
2010-12-06 08:35:41 51°22.357 2°51.12 347.7 13.2 339 23.4
2010-12-06 08:35:46 51°22.374 2°51.11 347.4 13.1 339 23.6
2010-12-06 08:35:51 51°22.39 2°51.1 347.3 12.9 341 23.2
2010-12-06 08:35:56 51°22.407 2°51.09 347.9 12.9 339 23.3
2010-12-06 08:36:01 51°22.424 2°51.081 348.5 12.7 342 23
2010-12-06 08:36:06 51°22.44 2°51.071 347.8 12.7 339 23.5
2010-12-06 08:36:11 51°22.457 2°51.063 348.7 12.7 341 23.7
2010-12-06 08:36:16 51°22.473 2°51.053 348.4 12.5 341 23.1
2010-12-06 08:36:21 51°22.49 2°51.044 348.5 12.5 340 23.4
2010-12-06 08:36:26 51°22.506 2°51.034 348.2 12.6 340 23.1
2010-12-06 08:36:31 51°22.522 2°51.025 348.3 12.4 340 23
2010-12-06 08:36:36 51°22.539 2°51.015 348.7 12.6 340 23
2010-12-06 08:36:41 51°22.555 2°51.006 348.2 12.6 340 23.1
2010-12-06 08:36:45 51°22.568 2°50.999 348.5 12.6 340 23.2
2010-12-06 08:36:51 51°22.588 2°50.988 348.6 12.6 341 23.1
2010-12-06 08:36:56 51°22.604 2°50.978 348.5 12.6 340 23
2010-12-06 08:37:01 51°22.62 2°50.968 348.2 12.7 339 23.2
2010-12-06 08:37:06 51°22.637 2°50.96 348.4 12.6 342 22.6
2010-12-06 08:37:11 51°22.653 2°50.949 348.2 12.7 338 22.6
2010-12-06 08:37:16 51°22.669 2°50.94 348.2 12.4 341 22.9
2010-12-06 08:37:21 51°22.686 2°50.929 347.8 12.7 338 22.9
2010-12-06 08:37:26 51°22.703 2°50.919 348.3 12.6 340 23.1
2010-12-06 08:37:31 51°22.719 2°50.908 345.9 12.7 336 22.4
2010-12-06 08:37:36 51°22.734 2°50.895 344.6 12.7 333 22.4
2010-12-06 08:37:41 51°22.751 2°50.884 343.7 12.8 335 22.4
2010-12-06 08:37:46 51°22.766 2°50.869 342.6 13 331 22.5
2010-12-06 08:37:51 51°22.782 2°50.857 340.7 12.8 337 22
2010-12-06 08:37:56 51°22.798 2°50.842 341.9 13.2 329 21.9
2010-12-06 08:38:01 51°22.814 2°50.83 341 12.9 333 21.5
2010-12-06 08:38:06 51°22.829 2°50.814 339.6 13.1 329 21.3
2010-12-06 08:38:11 51°22.845 2°50.802 340.1 12.8 333 20.3
2010-12-06 08:38:16 51°22.86 2°50.785 340.4 13.1 324 19.1
2010-12-06 08:38:21 51°22.876 2°50.77 336.1 13.4 327 18.3
2010-12-06 08:38:26 51°22.891 2°50.759 340.5 12.5 336 17
2010-12-06 08:38:31 51°22.905 2°50.742 337.8 13 325 19.1
2010-12-06 08:38:36 51°22.921 2°50.731 336.9 12.6 336 19
2010-12-06 08:38:41 51°22.936 2°50.716 338.9 12.7 329 18.4
2010-12-06 08:38:46 51°22.951 2°50.703 336.2 12.7 330 16.6
2010-12-06 08:38:51 51°22.967 2°50.69 338.8 12.4 334 14.3
2010-12-06 08:38:56 51°22.982 2°50.675 337.6 12.6 328 16.2
2010-12-06 08:39:01 51°22.998 2°50.664 338.7 12.5 336 16.4
2010-12-06 08:39:06 51°23.013 2°50.649 339.2 12.6 329 16.4
2010-12-06 08:39:11 51°23.028 2°50.639 339.4 12.4 337 15.3
2010-12-06 08:39:16 51°23.044 2°50.625 340.5 12.7 331 13.1
2010-12-06 08:39:21 51°23.059 2°50.613 339.7 12.5 333 14.6
2010-12-06 08:39:26 51°23.075 2°50.601 340.1 12.4 334 15.4
2010-12-06 08:39:30 51°23.088 2°50.592 340.6 12.4 334 15.6
2010-12-06 08:39:36 51°23.106 2°50.577 341.1 12.5 334 16
2010-12-06 08:39:41 51°23.122 2°50.566 341.4 12.4 335 15.6
2010-12-06 08:39:46 51°23.137 2°50.553 340.9 12.5 333 14.1
2010-12-06 08:39:51 51°23.153 2°50.541 340.5 12.4 334 14.4
2010-12-06 08:39:56 51°23.168 2°50.527 339.6 12.7 331 15.7
2010-12-06 08:40:01 51°23.184 2°50.515 339.3 12.6 333 16.2
2010-12-06 08:40:06 51°23.199 2°50.502 339.8 12.3 333 16.8
2010-12-06 08:40:11 51°23.215 2°50.489 339.3 12.7 333 16.8
2010-12-06 08:40:16 51°23.23 2°50.477 339.1 12.6 333 16.8
2010-12-06 08:40:21 51°23.246 2°50.464 339.7 12.5 333 16.6
2010-12-06 08:40:26 51°23.261 2°50.45 339.3 12.5 332 16.6
2010-12-06 08:40:31 51°23.277 2°50.437 339 12.6 333 15.6
2010-12-06 08:40:36 51°23.292 2°50.424 339 12.6 331 15.1
2010-12-06 08:40:41 51°23.308 2°50.411 339 12.6 332 16.8
2010-12-06 08:40:46 51°23.323 2°50.398 339.1 12.6 332 17.1
2010-12-06 08:40:51 51°23.338 2°50.385 339.3 12.5 333 17.6
2010-12-06 08:40:56 51°23.354 2°50.372 339.6 12.7 331 17.9
2010-12-06 08:41:01 51°23.369 2°50.359 339.2 12.6 332 18
2010-12-06 08:41:06 51°23.384 2°50.345 338.9 12.6 331 18.1
2010-12-06 08:41:11 51°23.4 2°50.333 339.2 12.5 333 18.1
2010-12-06 08:41:16 51°23.416 2°50.318 339.1 12.8 330 18.4
2010-12-06 08:41:21 51°23.431 2°50.306 338.7 12.7 332 18.1
2010-12-06 08:41:26 51°23.447 2°50.292 339.6 12.7 332 17.3
2010-12-06 08:41:31 51°23.462 2°50.278 339 12.6 331 18.6
2010-12-06 08:41:36 51°23.478 2°50.266 339.1 12.7 333 19
2010-12-06 08:41:41 51°23.493 2°50.252 339.8 12.8 332 18.4
2010-12-06 08:41:46 51°23.509 2°50.239 339.2 12.7 332 19
2010-12-06 08:41:51 51°23.524 2°50.226 339.6 12.8 333 19.4
2010-12-06 08:41:56 51°23.54 2°50.213 339.8 12.7 332 20.1
2010-12-06 08:42:01 51°23.556 2°50.2 339.8 12.7 333 19.7
2010-12-06 08:42:06 51°23.571 2°50.186 339.1 12.7 331 20.7
2010-12-06 08:42:11 51°23.587 2°50.173 339.8 12.9 332 21.1
2010-12-06 08:42:16 51°23.602 2°50.159 339.2 12.6 330 20.8
2010-12-06 08:42:21 51°23.617 2°50.145 338.6 12.6 331 21.1
2010-12-06 08:42:26 51°23.633 2°50.132 339 12.8 331 21.6
2010-12-06 08:42:31 51°23.648 2°50.118 339 12.7 331 22
2010-12-06 08:42:36 51°23.664 2°50.104 339 12.9 331 22.3
2010-12-06 08:42:41 51°23.68 2°50.09 338.9 12.9 331 22.6
2010-12-06 08:42:46 51°23.695 2°50.077 339.5 12.6 332 22.8
2010-12-06 08:42:51 51°23.71 2°50.062 338.9 12.7 329 23.2
2010-12-06 08:42:56 51°23.725 2°50.047 337.2 12.8 328 22.8
2010-12-06 08:43:01 51°23.741 2°50.032 336.2 13.1 328 23
2010-12-06 08:43:06 51°23.756 2°50.016 335.5 13 327 23.3
2010-12-06 08:43:11 51°23.771 2°50.001 335.1 13.2 327 23.4
2010-12-06 08:43:16 51°23.786 2°49.984 334.5 13.1 326 23.1
2010-12-06 08:43:21 51°23.801 2°49.968 334 13 326 23
2010-12-06 08:43:26 51°23.816 2°49.952 333.8 13 326 22.9
2010-12-06 08:43:31 51°23.83 2°49.935 333.7 13 325 23
2010-12-06 08:43:36 51°23.845 2°49.919 333.6 13.3 326 23.3
2010-12-06 08:43:41 51°23.86 2°49.903 333.8 13.1 325 22.6
2010-12-06 08:43:46 51°23.875 2°49.886 333.7 13 325 23.1
2010-12-06 08:43:51 51°23.89 2°49.869 334 13 326 22.7
2010-12-06 08:43:56 51°23.904 2°49.853 334 12.9 325 22.5
2010-12-06 08:44:01 51°23.919 2°49.836 333.5 13 325 22.4
2010-12-06 08:44:06 51°23.934 2°49.82 333.7 13 325 22.1
2010-12-06 08:44:11 51°23.949 2°49.804 334.1 13 325 22.1
2010-12-06 08:44:16 51°23.963 2°49.787 333.9 12.9 325 22.3
2010-12-06 08:44:21 51°23.978 2°49.771 333.9 12.9 325 22.3
2010-12-06 08:44:26 51°23.993 2°49.754 333.7 13 325 22.2
2010-12-06 08:44:31 51°24.008 2°49.738 333.9 13 326 22.4
2010-12-06 08:44:36 51°24.023 2°49.721 334 13.2 325 22.3
2010-12-06 08:44:41 51°24.037 2°49.705 334.2 12.9 326 22.4
2010-12-06 08:44:46 51°24.052 2°49.688 333.7 13 324 22.7
2010-12-06 08:44:51 51°24.067 2°49.672 334 13.1 325 22.6
2010-12-06 08:44:56 51°24.082 2°49.655 333.9 12.9 324 22.7
2010-12-06 08:45:01 51°24.097 2°49.639 334.2 13.1 326 22.8
2010-12-06 08:45:06 51°24.111 2°49.622 334 13 325 23
2010-12-06 08:45:11 51°24.126 2°49.606 334.1 12.9 325 22.7
2010-12-06 08:45:16 51°24.141 2°49.589 334.2 13.1 325 23
2010-12-06 08:45:21 51°24.156 2°49.572 334 13.1 326 23.2
2010-12-06 08:45:26 51°24.171 2°49.556 334.5 13.1 325 22.9
2010-12-06 08:45:31 51°24.186 2°49.539 334.6 13.1 325 23
2010-12-06 08:45:36 51°24.201 2°49.523 334.5 13.1 325 22.8
2010-12-06 08:45:41 51°24.216 2°49.507 334.3 13.2 326 22.7
2010-12-06 08:45:46 51°24.231 2°49.49 334.5 13.1 326 23
2010-12-06 08:45:51 51°24.246 2°49.473 334.4 13.2 325 22.7
2010-12-06 08:45:56 51°24.261 2°49.457 334 13.2 325 22.9
2010-12-06 08:46:01 51°24.276 2°49.44 334 13.2 326 22.9
2010-12-06 08:46:06 51°24.291 2°49.424 334.2 13.1 325 23.4
2010-12-06 08:46:11 51°24.306 2°49.407 334.5 13.1 325 23.1
2010-12-06 08:46:16 51°24.321 2°49.391 334.5 13.2 325 23.2
2010-12-06 08:46:21 51°24.336 2°49.374 334.3 13.2 325 22.8
2010-12-06 08:46:26 51°24.351 2°49.358 334.1 13.1 325 23.1
2010-12-06 08:46:31 51°24.366 2°49.341 334 13.2 325 23.1
2010-12-06 08:46:36 51°24.381 2°49.324 334 13.2 325 23
2010-12-06 08:46:41 51°24.396 2°49.308 333.9 13.2 325 22.7
2010-12-06 08:46:46 51°24.411 2°49.291 334.3 13.1 325 23.1
2010-12-06 08:46:51 51°24.426 2°49.274 334 13.1 325 23.1
2010-12-06 08:46:56 51°24.441 2°49.258 334.1 13.2 325 23
2010-12-06 08:47:01 51°24.456 2°49.241 334.5 13.2 326 23.1
2010-12-06 08:47:06 51°24.471 2°49.225 334.6 13.1 325 23
2010-12-06 08:47:11 51°24.486 2°49.209 334.5 13.1 326 23.2
2010-12-06 08:47:16 51°24.501 2°49.192 334.3 13.2 326 22.7
2010-12-06 08:47:21 51°24.516 2°49.175 334.2 13.3 325 22.4
2010-12-06 08:47:26 51°24.53 2°49.159 334.1 13.1 326 22
2010-12-06 08:47:31 51°24.545 2°49.142 334.1 13.1 325 22.8
2010-12-06 08:47:36 51°24.56 2°49.125 334 13 325 22.6
2010-12-06 08:47:41 51°24.573 2°49.106 331.4 13.1 321 22.7
2010-12-06 08:47:45 51°24.584 2°49.089 327.1 13.3 315 21.9
2010-12-06 08:47:51 51°24.6 2°49.065 325.8 13.4 316 22.1
2010-12-06 08:47:56 51°24.613 2°49.042 323.4 13.5 312 22.4
2010-12-06 08:48:01 51°24.626 2°49.021 322.1 13.5 315 22.9
2010-12-06 08:48:06 51°24.638 2°48.997 320.4 13.7 311 23
2010-12-06 08:48:11 51°24.651 2°48.975 319 13.7 311 21.3
2010-12-06 08:48:16 51°24.662 2°48.951 318.4 13.9 309 20.5
2010-12-06 08:48:21 51°24.674 2°48.927 317.2 13.7 309 20.8
2010-12-06 08:48:26 51°24.686 2°48.903 316.9 13.6 309 22.4
2010-12-06 08:48:31 51°24.698 2°48.879 316.6 13.7 308 22.5
2010-12-06 08:48:36 51°24.709 2°48.855 316.4 13.7 308 21.4
2010-12-06 08:48:41 51°24.721 2°48.831 316 13.8 308 23
2010-12-06 08:48:45 51°24.731 2°48.812 316.4 13.8 309 22.1
2010-12-06 08:48:51 51°24.745 2°48.783 316.5 13.8 308 23.1
2010-12-06 08:48:56 51°24.757 2°48.759 316.4 13.7 309 22.7
2010-12-06 08:49:01 51°24.769 2°48.735 316.5 13.9 309 24.2
2010-12-06 08:49:06 51°24.781 2°48.711 316.5 13.9 309 24.4
2010-12-06 08:49:11 51°24.793 2°48.688 316.8 13.9 309 22.3
2010-12-06 08:49:16 51°24.805 2°48.664 316.9 13.6 309 22.9
2010-12-06 08:49:21 51°24.816 2°48.639 316.8 13.8 308 24.1
2010-12-06 08:49:26 51°24.829 2°48.616 316.5 13.7 309 24.9
2010-12-06 08:49:31 51°24.841 2°48.592 316.5 13.8 309 25.8
2010-12-06 08:49:36 51°24.853 2°48.568 316.6 13.8 309 25.4
2010-12-06 08:49:41 51°24.864 2°48.545 316.8 13.5 309 25.6
2010-12-06 08:49:46 51°24.875 2°48.524 316.9 12.4 309 25.4
2010-12-06 08:49:51 51°24.884 2°48.504 317.3 11.6 308 25.4
2010-12-06 08:49:56 51°24.893 2°48.486 317.8 10.5 308 25.9
2010-12-06 08:50:01 51°24.902 2°48.469 318.6 10.1 308 26.2
2010-12-06 08:50:05 51°24.908 2°48.456 319.9 9.2 309 26.2
2010-12-06 08:50:11 51°24.917 2°48.438 321.9 8.7 310 27
2010-12-06 08:50:16 51°24.925 2°48.426 324.4 8.1 313 26.5
2010-12-06 08:50:21 51°24.932 2°48.414 327 7.4 313 27.3
2010-12-06 08:50:26 51°24.938 2°48.404 330.9 6.7 316 27.2
2010-12-06 08:50:30 51°24.943 2°48.396 333.2 6.2 316 27.5
2010-12-06 08:50:36 51°24.95 2°48.386 335.2 5.6 317 27.4
2010-12-06 08:50:41 51°24.955 2°48.378 337.3 5.3 315 28
2010-12-06 08:50:45 51°24.959 2°48.372 340.2 4.8 319 28.2
2010-12-06 08:50:51 51°24.965 2°48.365 342.9 4.4 319 28.2
2010-12-06 08:50:56 51°24.968 2°48.36 346.9 3.8 321 28.3
2010-12-06 08:51:01 51°24.972 2°48.355 350.7 3.3 319 28.3
2010-12-06 08:51:06 51°24.975 2°48.351 354.7 3 319 28.2
2010-12-06 08:51:11 51°24.978 2°48.347 357.9 2.6 319 28.2
2010-12-06 08:51:16 51°24.98 2°48.344 2.4 2.3 316 27.9
2010-12-06 08:51:21 51°24.981 2°48.341 7.4 1.9 312 28.1
2010-12-06 08:51:25 51°24.982 2°48.338 11.6 1.7 306 28.3
2010-12-06 08:51:31 51°24.984 2°48.335 14.5 1.6 296 28.2
2010-12-06 08:51:36 51°24.984 2°48.332 18.5 1.4 290 28.3
2010-12-06 08:51:41 51°24.984 2°48.329 21.9 1.4 276 28.5
2010-12-06 08:51:46 51°24.984 2°48.326 25.2 1.4 264 28.2
2010-12-06 08:51:51 51°24.984 2°48.323 27.3 1.4 265 28.3
2010-12-06 08:51:56 51°24.983 2°48.319 29.7 1.4 263 28.4
2010-12-06 08:52:01 51°24.982 2°48.316 31.4 1.4 255 28.1
2010-12-06 08:52:05 51°24.982 2°48.314 33.8 1.5 254 28.6
2010-12-06 08:52:11 51°24.981 2°48.31 34.9 1.6 250 28.5
2010-12-06 08:52:16 51°24.98 2°48.307 37.2 1.6 244 28.9
2010-12-06 08:52:21 51°24.979 2°48.304 38.6 1.7 247 28.7
2010-12-06 08:52:25 51°24.978 2°48.301 40.7 1.7 246 28.4
2010-12-06 08:52:31 51°24.977 2°48.297 42.4 1.6 239 28.5
2010-12-06 08:52:36 51°24.976 2°48.294 44.1 1.6 242 28.6
2010-12-06 08:52:41 51°24.975 2°48.291 45.5 1.7 238 28.8
2010-12-06 08:52:45 51°24.974 2°48.288 47.3 1.7 240 28.5
2010-12-06 08:52:51 51°24.972 2°48.285 48.5 1.7 238 28.9
2010-12-06 08:52:56 51°24.971 2°48.282 49.9 1.7 238 28.4
2010-12-06 08:53:01 51°24.97 2°48.278 51.2 1.6 237 28.6
2010-12-06 08:53:06 51°24.968 2°48.275 52.4 1.7 237 28.5
2010-12-06 08:53:11 51°24.967 2°48.272 53.5 1.7 231 28.7
2010-12-06 08:53:16 51°24.966 2°48.269 54.7 1.8 244 28.4
2010-12-06 08:53:21 51°24.964 2°48.266 55.8 1.7 234 28.6
2010-12-06 08:53:26 51°24.963 2°48.263 56.6 1.7 238 28.7
2010-12-06 08:53:31 51°24.961 2°48.259 57.3 1.8 233 28.7
2010-12-06 08:53:36 51°24.96 2°48.256 58.3 1.8 237 28.6
2010-12-06 08:53:41 51°24.959 2°48.253 59.5 1.8 231 29
2010-12-06 08:53:46 51°24.957 2°48.249 60.3 1.9 232 29
2010-12-06 08:53:51 51°24.956 2°48.246 61.2 1.9 233 29
2010-12-06 08:53:56 51°24.954 2°48.243 62.3 1.9 232 29.1
2010-12-06 08:54:01 51°24.953 2°48.239 62.9 1.8 234 29.1
2010-12-06 08:54:05 51°24.952 2°48.237 63.3 1.8 242 28.7
2010-12-06 08:54:11 51°24.951 2°48.233 64 1.8 238 28.8
2010-12-06 08:54:16 51°24.949 2°48.229 64.5 1.8 234 28.8
2010-12-06 08:54:21 51°24.947 2°48.226 64.9 1.8 229 29.2
2010-12-06 08:54:26 51°24.946 2°48.222 65.4 1.8 233 28.8
2010-12-06 08:54:31 51°24.945 2°48.219 65.4 1.8 234 28.9
2010-12-06 08:54:36 51°24.943 2°48.215 66.1 1.8 241 29.2
2010-12-06 08:54:41 51°24.941 2°48.212 66.9 1.9 226 29.1
2010-12-06 08:54:45 51°24.94 2°48.209 67.1 1.9 239 29.2
2010-12-06 08:54:51 51°24.938 2°48.205 67.6 2 230 29.7
2010-12-06 08:54:56 51°24.936 2°48.201 68.2 2 234 29.7
2010-12-06 08:55:01 51°24.935 2°48.198 68.5 2.1 233 29.8
2010-12-06 08:55:06 51°24.933 2°48.195 68.8 2 232 29.6
2010-12-06 08:55:10 51°24.932 2°48.192 69 2 227 29.7
2010-12-06 08:55:16 51°24.931 2°48.187 69 1.9 239 29.5
2010-12-06 08:55:21 51°24.929 2°48.184 69.1 2 234 29.7
2010-12-06 08:55:25 51°24.927 2°48.181 69 2.1 233 29.9
2010-12-06 08:55:31 51°24.926 2°48.177 69 1.9 237 29.7
2010-12-06 08:55:36 51°24.924 2°48.173 68.9 1.9 238 29.5
2010-12-06 08:55:41 51°24.923 2°48.17 69 2 232 29.7
2010-12-06 08:55:46 51°24.921 2°48.166 69.2 2 236 29.6
2010-12-06 08:55:51 51°24.92 2°48.163 69 1.9 236 30.2
2010-12-06 08:55:56 51°24.918 2°48.159 68.9 2 233 29.6
2010-12-06 08:56:01 51°24.917 2°48.155 68.9 1.9 236 29.8
2010-12-06 08:56:05 51°24.915 2°48.153 68.9 2 238 30
2010-12-06 08:56:11 51°24.913 2°48.149 68.8 2 231 29.8
2010-12-06 08:56:16 51°24.912 2°48.145 68.9 1.9 238 29.9
2010-12-06 08:56:21 51°24.91 2°48.141 68.9 2 236 29.7
2010-12-06 08:56:26 51°24.908 2°48.138 69 2.1 233 29.7
2010-12-06 08:56:31 51°24.906 2°48.134 69.3 2.1 233 29.6
2010-12-06 08:56:36 51°24.905 2°48.131 69.7 2 233 29.8
2010-12-06 08:56:41 51°24.903 2°48.127 70 2 233 30
2010-12-06 08:56:45 51°24.902 2°48.124 70.5 2.1 233 29.4
2010-12-06 08:56:51 51°24.9 2°48.12 71.2 2.1 230 29.3
2010-12-06 08:56:56 51°24.898 2°48.116 71.9 2.1 232 29.5
2010-12-06 08:57:01 51°24.897 2°48.113 72.6 2 234 29.1
2010-12-06 08:57:06 51°24.895 2°48.109 73.3 2.1 230 29.1
2010-12-06 08:57:11 51°24.893 2°48.105 74 2 237 28.7
2010-12-06 08:57:16 51°24.891 2°48.102 74.8 2.1 230 29.2
2010-12-06 08:57:21 51°24.89 2°48.098 75.5 1.9 245 29
2010-12-06 08:57:25 51°24.888 2°48.095 76.2 2.2 226 29.1
2010-12-06 08:57:31 51°24.886 2°48.091 76.7 2 233 29.2
2010-12-06 08:57:36 51°24.885 2°48.087 77.5 2.1 230 29.2
2010-12-06 08:57:41 51°24.883 2°48.083 78.1 1.9 242 29
2010-12-06 08:57:46 51°24.881 2°48.08 78.9 2.1 230 28.9
2010-12-06 08:57:51 51°24.88 2°48.076 79.6 2 236 29.3
2010-12-06 08:57:56 51°24.878 2°48.073 80.6 2.1 227 29.3
2010-12-06 08:58:01 51°24.876 2°48.069 81 1.9 237 29.3
2010-12-06 08:58:06 51°24.875 2°48.065 81.4 2 232 29
2010-12-06 08:58:11 51°24.873 2°48.062 82.1 1.9 236 29.1
2010-12-06 08:58:16 51°24.871 2°48.058 82.5 2 231 29.3
2010-12-06 08:58:21 51°24.87 2°48.054 83 2 233 29.4
2010-12-06 08:58:26 51°24.868 2°48.051 83.7 2 235 29.1
2010-12-06 08:58:31 51°24.866 2°48.048 84 2.2 227 29.2